Time;durP1;ratioP1;P1;durP2;ratioP2;P2;SDS_P1;SDS_P2;PMS_P1;PMS_P2;Temp;Humidity;BMP_temperature;BMP_pressure;BME280_temperature;BME280_humidity;BME280_pressure;Samples;Min_cycle;Max_cycle;Signal;HPM_P1;HPM_P2
2023/02/15 00:01:22;;;;;;;38.38;21.42;;;;;;;1.54;64.68;95996.22;5069111;28;20102;-75
2023/02/15 00:03:48;;;;;;;36.83;20.92;;;;;;;1.62;64.24;96003.69;5069726;28;20031;-74
2023/02/15 00:06:16;;;;;;;39.20;21.77;;;;;;;1.59;65.05;96008.91;5046377;28;20033;-74
2023/02/15 00:08:42;;;;;;;38.97;22.02;;;;;;;1.42;64.53;95986.34;5068655;28;20021;-75
2023/02/15 00:11:11;;;;;;;39.03;22.60;;;;;;;1.46;64.81;96010.13;5069017;28;20033;-74
2023/02/15 00:13:40;;;;;;;36.88;19.77;;;;;;;1.46;64.70;96008.41;5052634;28;20052;-75
2023/02/15 00:16:07;;;;;;;38.65;21.23;;;;;;;1.40;65.07;96008.56;5068601;28;20501;-74
2023/02/15 00:18:32;;;;;;;38.30;21.50;;;;;;;1.38;65.38;96006.94;5069459;28;20025;-75
2023/02/15 00:20:58;;;;;;;38.03;21.08;;;;;;;1.43;65.29;96016.16;5070490;28;20028;-75
2023/02/15 00:23:23;;;;;;;37.80;22.08;;;;;;;1.31;65.13;96009.69;5049140;28;20040;-75
2023/02/15 00:25:49;;;;;;;38.45;21.05;;;;;;;1.36;65.18;96012.09;5050602;28;20021;-74
2023/02/15 00:28:15;;;;;;;37.45;20.90;;;;;;;1.21;65.94;96008.22;5049271;28;20441;-75
2023/02/15 00:30:40;;;;;;;36.95;20.73;;;;;;;1.31;65.34;96019.09;5034056;28;20033;-75
2023/02/15 00:33:06;;;;;;;35.78;21.02;;;;;;;1.23;66.01;96019.28;5065942;28;20040;-74
2023/02/15 00:35:31;;;;;;;39.50;21.63;;;;;;;1.21;66.16;96012.53;5035661;28;20024;-75
2023/02/15 00:37:57;;;;;;;38.10;21.88;;;;;;;1.26;66.28;96026.88;5052198;28;20047;-75
2023/02/15 00:40:22;;;;;;;35.55;20.90;;;;;;;1.25;65.79;96014.94;5051806;28;20033;-74
2023/02/15 00:42:48;;;;;;;36.97;20.92;;;;;;;1.22;66.29;96014.19;5068597;28;20041;-75
2023/02/15 00:45:13;;;;;;;39.13;21.83;;;;;;;1.16;66.33;96030.56;5069223;28;20032;-74
2023/02/15 00:47:38;;;;;;;39.05;21.95;;;;;;;1.23;66.23;96024.41;5069186;28;20029;-75
2023/02/15 00:50:05;;;;;;;37.33;20.63;;;;;;;1.22;66.05;96025.25;5067640;28;20040;-74
2023/02/15 00:52:31;;;;;;;36.17;21.08;;;;;;;1.23;66.29;96016.72;5068572;28;20052;-74
2023/02/15 00:54:56;;;;;;;38.22;21.42;;;;;;;1.23;66.49;96008.22;5070270;28;20510;-75
2023/02/15 00:57:22;;;;;;;37.55;22.35;;;;;;;1.34;65.93;96006.19;5048831;28;20036;-75
2023/02/15 00:59:47;;;;;;;41.95;22.30;;;;;;;1.28;66.30;96014.88;5060345;28;20040;-75
2023/02/15 01:02:13;;;;;;;37.60;21.77;;;;;;;1.22;65.81;96004.78;5051712;28;20029;-75
2023/02/15 01:04:38;;;;;;;35.08;20.67;;;;;;;1.24;66.46;96003.03;5051767;28;20060;-74
2023/02/15 01:07:03;;;;;;;36.50;21.15;;;;;;;1.25;65.82;96008.97;5054375;28;20036;-75
2023/02/15 01:09:29;;;;;;;35.88;20.20;;;;;;;1.24;66.26;96004.75;5071626;28;20037;-75
2023/02/15 01:11:54;;;;;;;38.47;21.70;;;;;;;1.09;66.10;96003.47;5055638;28;20041;-75
2023/02/15 01:14:20;;;;;;;35.83;20.63;;;;;;;1.09;66.95;95994.06;5072602;28;20082;-75
2023/02/15 01:16:45;;;;;;;37.83;21.70;;;;;;;1.26;66.14;95996.16;5052706;28;20078;-74
2023/02/15 01:19:11;;;;;;;36.53;20.67;;;;;;;1.22;66.07;96007.34;5064690;28;20048;-75
2023/02/15 01:21:37;;;;;;;35.83;21.50;;;;;;;1.10;66.40;96000.00;5049885;28;20513;-75
2023/02/15 01:24:02;;;;;;;38.83;21.67;;;;;;;1.08;66.56;96004.31;5068376;28;20137;-75
2023/02/15 01:26:28;;;;;;;36.90;20.98;;;;;;;1.15;66.62;96007.56;5068679;28;20028;-75
2023/02/15 01:28:53;;;;;;;37.85;22.33;;;;;;;1.00;66.06;95962.75;5068508;28;20025;-75
2023/02/15 01:31:20;;;;;;;37.00;20.92;;;;;;;1.17;66.53;95996.41;5070078;28;20032;-75
2023/02/15 01:33:46;;;;;;;34.28;20.35;;;;;;;1.17;66.49;95991.28;5101150;28;20033;-76
2023/02/15 01:36:11;;;;;;;37.88;21.02;;;;;;;1.13;66.34;95978.63;5063557;28;20586;-75
2023/02/15 01:38:37;;;;;;;38.72;20.00;;;;;;;1.25;65.66;95983.38;5068605;28;20048;-75
2023/02/15 01:41:20;;;;;;;33.83;19.92;;;;;;;1.16;66.37;95969.13;5067661;28;20126;-75
2023/02/15 01:43:47;;;;;;;33.25;20.08;;;;;;;1.21;66.03;95980.06;5065498;28;20103;-75
2023/02/15 01:46:13;;;;;;;30.90;18.90;;;;;;;1.16;66.66;95981.91;5065627;28;20474;-75
2023/02/15 01:48:44;;;;;;;36.70;21.95;;;;;;;1.17;66.53;95978.50;5083170;28;20491;-77
2023/02/15 01:51:10;;;;;;;41.08;22.05;;;;;;;1.07;67.30;95979.63;5051652;28;20032;-75
2023/02/15 01:53:51;;;;;;;37.40;20.17;;;;;;;0.87;67.38;95946.91;5053183;28;20525;-77
2023/02/15 01:56:18;;;;;;;;;;;;;;;0.97;67.24;95988.41;5065237;28;20481;-75
2023/02/15 01:58:43;;;;;;;32.90;19.15;;;;;;;0.98;67.55;95985.00;5071567;28;20030;-76
2023/02/15 02:01:09;;;;;;;35.58;19.80;;;;;;;0.97;67.99;95973.06;5069394;28;20107;-77
2023/02/15 02:03:51;;;;;;;34.70;20.17;;;;;;;1.02;67.78;95973.78;5067568;28;20046;-75
2023/02/15 02:06:17;;;;;;;40.63;22.85;;;;;;;1.09;67.48;95982.97;5066400;28;20060;-75
2023/02/15 02:08:43;;;;;;;42.13;21.77;;;;;;;0.95;67.33;95987.59;5101904;28;20031;-75
2023/02/15 02:11:15;;;;;;;38.63;21.25;;;;;;;0.89;67.85;95969.00;5051161;28;20028;-75
2023/02/15 02:13:41;;;;;;;39.45;22.73;;;;;;;0.87;67.37;95957.13;5066305;28;20114;-75
2023/02/15 02:16:45;;;;;;;40.50;22.40;;;;;;;1.00;67.64;95988.31;5065584;28;20036;-75
2023/02/15 02:19:20;;;;;;;34.88;19.70;;;;;;;0.97;67.82;95988.41;5067513;28;20097;-75
2023/02/15 02:22:07;;;;;;;35.75;20.70;;;;;;;0.98;67.77;95985.00;5069198;28;20398;-75
2023/02/15 02:24:50;;;;;;;36.95;21.00;;;;;;;0.98;67.57;95990.94;5069126;28;20033;-75
2023/02/15 02:28:11;;;;;;;37.40;21.55;;;;;;;0.96;67.43;96002.09;5071264;28;20032;-75
2023/02/15 02:31:04;;;;;;;34.53;19.67;;;;;;;1.06;67.24;95998.44;5030417;28;21710;-75
2023/02/15 02:33:33;;;;;;;38.80;21.40;;;;;;;0.86;67.52;96001.47;5068468;28;20036;-75
2023/02/15 02:36:15;;;;;;;38.42;21.80;;;;;;;0.79;68.65;96000.81;5066483;28;20487;-75
2023/02/15 02:38:43;;;;;;;38.55;21.40;;;;;;;0.94;68.43;96001.28;5066975;28;20607;-75
2023/02/15 02:41:33;;;;;;;37.95;21.30;;;;;;;0.85;67.83;95984.47;5065371;28;20456;-75
2023/02/15 02:44:27;;;;;;;38.17;20.77;;;;;;;0.93;68.54;95991.94;5060148;28;20044;-75
2023/02/15 02:47:25;;;;;;;36.17;19.92;;;;;;;0.93;67.97;95986.84;5069323;28;20028;-75
2023/02/15 02:50:05;;;;;;;39.97;21.67;;;;;;;0.82;68.51;95994.78;5057394;28;20556;-75
2023/02/15 02:52:36;;;;;;;36.00;19.98;;;;;;;0.95;68.45;95992.72;5052342;28;20036;-75
2023/02/15 02:55:09;;;;;;;36.88;20.00;;;;;;;0.77;68.41;95976.16;5069884;28;20078;-75
2023/02/15 02:57:35;;;;;;;33.63;19.52;;;;;;;0.96;68.60;95996.97;5031956;28;20043;-75
2023/02/15 03:00:00;;;;;;;35.15;20.00;;;;;;;0.89;68.83;95992.03;5032776;28;20037;-75
2023/02/15 03:02:29;;;;;;;34.85;19.60;;;;;;;0.93;68.67;95997.06;5046482;28;20405;-75
2023/02/15 03:05:03;;;;;;;36.42;20.70;;;;;;;0.79;68.24;95975.22;5070671;28;20029;-76
2023/02/15 03:07:30;;;;;;;39.13;21.13;;;;;;;0.86;68.09;95984.44;5054287;28;20111;-75
2023/02/15 03:09:57;;;;;;;33.83;18.83;;;;;;;0.98;68.63;96008.03;5087247;28;20036;-75
2023/02/15 03:12:36;;;;;;;38.22;19.08;;;;;;;0.97;68.30;96003.75;5052793;28;20048;-75
2023/02/15 03:15:03;;;;;;;35.47;21.17;;;;;;;0.82;68.16;95987.94;5053095;28;20037;-75
2023/02/15 03:17:32;;;;;;;39.45;20.88;;;;;;;1.01;68.39;96015.63;5070894;28;20032;-75
2023/02/15 03:20:00;;;;;;;36.65;19.58;;;;;;;1.11;68.40;96017.03;5069911;28;20056;-75
2023/02/15 03:22:31;;;;;;;35.05;20.08;;;;;;;1.06;68.23;96004.38;5069609;28;20093;-75
2023/02/15 03:25:04;;;;;;;36.10;19.02;;;;;;;1.02;68.26;96007.06;5060143;28;20079;-75
2023/02/15 03:27:36;;;;;;;35.92;19.02;;;;;;;1.10;68.19;96000.84;5053405;28;20040;-75
2023/02/15 03:30:01;;;;;;;;;;;;;;;1.21;68.14;96015.91;5054131;28;20070;-75
2023/02/15 03:32:28;;;;;;;34.97;18.67;;;;;;;1.23;67.71;96009.03;5049829;28;20297;-75
2023/02/15 03:34:54;;;;;;;32.65;18.33;;;;;;;1.25;67.62;96008.97;5026429;28;20033;-75
2023/02/15 03:37:25;;;;;;;34.00;18.38;;;;;;;1.24;67.61;96012.44;5034712;28;20052;-75
2023/02/15 03:42:44;;;;;;;35.75;19.33;;;;;;;1.10;68.22;96000.00;5069949;28;20043;-75
2023/02/15 03:45:13;;;;;;;34.40;19.20;;;;;;;1.19;67.96;95993.78;5052735;28;20036;-76
2023/02/15 03:47:41;;;;;;;32.75;17.75;;;;;;;1.27;68.15;96008.06;5053495;28;20448;-75
2023/02/15 03:52:57;;;;;;;33.92;18.52;;;;;;;1.32;67.33;96011.34;5069528;28;20185;-75
2023/02/15 03:55:23;;;;;;;32.40;18.40;;;;;;;1.36;67.94;96011.25;5069775;28;20028;-75
2023/02/15 04:03:22;;;;;;;36.72;20.10;;;;;;;1.40;67.32;96028.22;5055115;28;20595;-75
2023/02/15 04:05:48;;;;;;;33.17;19.58;;;;;;;1.24;67.79;96004.75;5069463;28;20035;-75
2023/02/15 04:08:13;;;;;;;34.75;20.23;;;;;;;1.33;67.17;96012.19;5068009;28;20024;-75
2023/02/15 04:10:55;;;;;;;38.95;21.38;;;;;;;1.40;67.59;96017.97;5048449;28;20029;-75
2023/02/15 04:13:30;;;;;;;35.60;19.05;;;;;;;1.32;68.03;96021.59;5050550;28;20053;-75
2023/02/15 04:16:04;;;;;;;32.75;18.52;;;;;;;1.41;67.40;96024.78;5049574;28;20036;-75
2023/02/15 04:26:47;;;;;;;39.20;21.33;;;;;;;1.43;67.33;96030.69;5068990;28;20039;-75
2023/02/15 04:29:14;;;;;;;39.85;22.15;;;;;;;1.47;67.50;96043.34;5067201;28;20052;-75
2023/02/15 04:31:39;;;;;;;40.25;22.02;;;;;;;1.40;67.35;96033.34;5066903;28;20077;-75
2023/02/15 04:34:04;;;;;;;54.55;28.35;;;;;;;1.46;68.33;96049.38;5068682;28;20028;-75
2023/02/15 04:36:30;;;;;;;40.88;21.92;;;;;;;1.39;67.61;96041.88;5067574;28;20551;-75
2023/02/15 04:38:55;;;;;;;40.15;20.65;;;;;;;1.53;67.28;96050.03;5067879;28;20480;-75
2023/02/15 04:41:21;;;;;;;40.55;22.60;;;;;;;1.47;67.89;96061.28;5071980;28;20033;-75
2023/02/15 04:43:46;;;;;;;53.25;30.05;;;;;;;1.47;67.63;96058.72;5038933;28;20039;-75
2023/02/15 04:46:12;;;;;;;48.13;25.73;;;;;;;1.50;67.60;96066.31;5072447;28;20020;-75
2023/02/15 04:48:37;;;;;;;49.25;26.20;;;;;;;1.39;67.71;96052.13;5055801;28;20036;-75
2023/02/15 04:51:06;;;;;;;53.83;29.95;;;;;;;1.46;68.07;96056.22;5073971;28;20037;-75
2023/02/15 04:53:32;;;;;;;54.15;28.10;;;;;;;1.61;67.60;96052.38;5072729;28;20517;-75
2023/02/15 04:55:58;;;;;;;50.60;27.88;;;;;;;1.56;68.28;96057.63;5072803;28;20119;-75
2023/02/15 04:58:23;;;;;;;40.33;21.83;;;;;;;1.58;68.03;96062.72;5072906;28;20494;-75
2023/02/15 05:00:49;;;;;;;39.72;21.00;;;;;;;1.50;67.87;96068.06;5072799;28;20497;-75
2023/02/15 05:03:16;;;;;;;41.33;21.40;;;;;;;1.57;67.40;96069.56;5072094;28;20045;-75
2023/02/15 05:05:42;;;;;;;38.05;21.08;;;;;;;1.61;68.07;96070.31;5072573;28;20077;-75
2023/02/15 05:08:08;;;;;;;39.97;21.27;;;;;;;1.57;68.05;96074.69;5073825;28;20040;-75
2023/02/15 05:10:33;;;;;;;38.00;20.30;;;;;;;1.51;68.54;96072.31;5039393;28;20035;-75
2023/02/15 05:12:58;;;;;;;33.05;18.88;;;;;;;1.70;67.87;96078.59;5073007;28;20041;-75
2023/02/15 05:15:24;;;;;;;36.40;19.27;;;;;;;1.70;67.77;96063.22;5072242;28;20132;-75
2023/02/15 05:17:49;;;;;;;39.42;21.20;;;;;;;1.69;67.99;96074.34;5055961;28;20505;-75
2023/02/15 05:20:15;;;;;;;35.17;19.58;;;;;;;1.76;66.58;96073.31;5072094;28;20037;-75
2023/02/15 05:22:40;;;;;;;35.10;19.70;;;;;;;1.67;67.97;96077.81;5055860;28;20033;-75
2023/02/15 05:30:35;;;;;;;40.15;19.60;;;;;;;1.55;67.79;96094.38;5058327;28;20178;-75
2023/02/15 05:33:01;;;;;;;41.88;22.45;;;;;;;1.49;68.27;96094.56;5073648;28;20028;-75
2023/02/15 05:35:26;;;;;;;38.38;21.38;;;;;;;1.57;67.77;96097.75;5072142;28;20418;-75
2023/02/15 05:37:52;;;;;;;40.72;19.92;;;;;;;1.54;67.96;96098.66;5072055;28;20036;-75
2023/02/15 05:40:17;;;;;;;39.30;19.92;;;;;;;1.42;67.92;96093.03;5054955;28;20494;-75
2023/02/15 05:42:43;;;;;;;37.88;19.83;;;;;;;1.46;68.72;96089.50;5069490;28;20035;-75
2023/02/15 05:45:09;;;;;;;40.75;21.63;;;;;;;1.58;68.16;96099.41;5092138;28;20025;-75
2023/02/15 05:47:38;;;;;;;40.78;20.50;;;;;;;1.61;68.16;96094.22;5070466;28;20025;-75
2023/02/15 05:50:04;;;;;;;41.35;21.25;;;;;;;1.67;67.25;96096.63;5072528;28;20036;-75
2023/02/15 05:52:29;;;;;;;40.83;21.30;;;;;;;1.72;67.11;96099.88;5105064;27;20190;-75
2023/02/15 05:54:57;;;;;;;38.40;21.13;;;;;;;1.64;67.53;96091.56;5070176;28;20032;-75
2023/02/15 05:57:23;;;;;;;41.35;21.25;;;;;;;1.57;67.92;96105.44;5053780;28;20028;-76
2023/02/15 05:59:48;;;;;;;38.20;21.20;;;;;;;1.42;68.03;96087.91;5048387;28;20032;-75
2023/02/15 06:02:14;;;;;;;38.70;20.80;;;;;;;1.57;67.94;96100.31;5070931;28;20029;-75
2023/02/15 06:04:39;;;;;;;41.95;21.30;;;;;;;1.41;68.28;96081.94;5071149;28;20425;-75
2023/02/15 06:07:05;;;;;;;39.30;21.38;;;;;;;1.59;67.39;96090.88;5071951;28;20113;-75
2023/02/15 06:09:32;;;;;;;40.42;20.70;;;;;;;1.68;67.11;96105.97;5036350;28;20033;-75
2023/02/15 06:11:58;;;;;;;38.05;20.55;;;;;;;1.52;67.34;96073.97;5046685;28;20579;-75
2023/02/15 06:14:23;;;;;;;45.45;23.70;;;;;;;1.72;67.24;96099.88;5070419;28;20024;-75
2023/02/15 06:16:51;;;;;;;35.85;19.85;;;;;;;1.70;66.99;96095.69;5067316;28;20040;-75
2023/02/15 06:19:16;;;;;;;43.78;20.73;;;;;;;1.67;67.16;96101.75;5051906;28;20039;-75
2023/02/15 06:21:46;;;;;;;36.75;19.52;;;;;;;1.75;67.00;96106.63;5065983;28;20316;-75
2023/02/15 06:24:12;;;;;;;37.05;18.88;;;;;;;1.81;66.41;96110.75;5067397;28;20048;-75
2023/02/15 06:26:43;;;;;;;38.78;20.52;;;;;;;1.74;66.64;96113.50;5050834;28;20486;-75
2023/02/15 06:29:09;;;;;;;37.35;19.65;;;;;;;1.75;66.91;96116.88;5049539;28;20562;-75
2023/02/15 06:31:34;;;;;;;41.30;20.73;;;;;;;1.70;67.05;96118.72;5064315;28;20048;-75
2023/02/15 06:34:02;;;;;;;44.42;23.05;;;;;;;1.66;67.50;96112.03;5066929;28;20040;-75
2023/02/15 06:36:28;;;;;;;39.70;18.73;;;;;;;1.62;67.06;96102.75;5064478;28;20037;-74
2023/02/15 06:38:54;;;;;;;36.00;20.02;;;;;;;1.79;66.82;96119.34;5079651;28;20521;-74
2023/02/15 06:41:19;;;;;;;34.47;18.92;;;;;;;1.89;66.36;96103.69;5049645;28;20591;-74
2023/02/15 06:43:47;;;;;;;34.10;18.02;;;;;;;1.85;66.58;96107.25;5064996;28;20457;-74
2023/02/15 06:46:13;;;;;;;34.58;19.23;;;;;;;1.84;66.80;96114.09;5066452;28;20034;-74
2023/02/15 06:48:38;;;;;;;38.28;20.38;;;;;;;1.79;67.21;96111.66;5066108;28;20037;-75
2023/02/15 06:51:03;;;;;;;35.60;18.98;;;;;;;1.94;66.46;96107.81;5066954;28;20032;-75
2023/02/15 06:53:29;;;;;;;37.03;19.23;;;;;;;1.94;66.44;96112.09;5049271;28;20047;-75
2023/02/15 06:56:06;;;;;;;32.75;19.20;;;;;;;2.01;66.11;96095.69;5067404;28;20478;-74
2023/02/15 06:58:41;;;;;;;36.13;19.33;;;;;;;2.02;65.81;96099.91;5067873;28;20446;-75
2023/02/15 07:01:09;;;;;;;36.67;19.42;;;;;;;2.04;66.10;96097.31;5066648;28;20035;-75
2023/02/15 07:03:34;;;;;;;37.45;20.75;;;;;;;2.05;65.71;96086.16;5047847;28;20036;-75
2023/02/15 07:06:01;;;;;;;40.10;20.50;;;;;;;2.18;65.53;96096.00;5038717;28;20028;-75
2023/02/15 07:08:27;;;;;;;37.88;19.85;;;;;;;2.03;66.10;96106.69;5066324;28;20452;-75
2023/02/15 07:10:53;;;;;;;41.45;19.77;;;;;;;2.15;65.54;96111.50;5065574;28;20036;-75
2023/02/15 07:13:19;;;;;;;28.70;16.88;;;;;;;2.10;65.19;96112.50;5077666;28;20127;-75
2023/02/15 07:15:47;;;;;;;32.65;17.77;;;;;;;1.91;65.04;96060.94;5064157;28;20506;-75
2023/02/15 07:18:13;;;;;;;30.30;18.15;;;;;;;2.23;65.16;96116.41;5078637;28;20422;-75
2023/02/15 07:20:40;;;;;;;30.08;16.13;;;;;;;2.33;64.47;96120.34;5065065;28;20021;-75
2023/02/15 07:23:06;;;;;;;31.05;17.42;;;;;;;2.03;64.70;96116.94;5063105;28;20044;-74
2023/02/15 07:25:31;;;;;;;33.40;18.05;;;;;;;2.05;65.13;96110.06;5049281;28;20426;-75
2023/02/15 07:27:58;;;;;;;39.60;19.48;;;;;;;2.20;64.64;96119.91;5049685;28;20033;-74
2023/02/15 07:30:23;;;;;;;32.83;18.15;;;;;;;2.17;64.46;96098.59;5050820;28;20046;-75
2023/02/15 07:35:33;;;;;;;32.45;17.95;;;;;;;2.24;64.91;96100.94;5066641;28;20047;-75
2023/02/15 07:37:59;;;;;;;40.03;21.38;;;;;;;2.42;64.21;96098.72;5064696;28;20040;-75
2023/02/15 07:40:24;;;;;;;40.90;20.88;;;;;;;2.53;63.40;96104.34;5050723;28;20222;-75
2023/02/15 07:42:52;;;;;;;32.88;16.90;;;;;;;2.40;64.10;96106.47;5043938;28;20029;-75
2023/02/15 07:45:18;;;;;;;28.70;15.45;;;;;;;2.50;63.18;96104.44;5051691;28;20040;-75
2023/02/15 07:47:44;;;;;;;27.27;15.73;;;;;;;2.90;62.29;96101.50;5035133;28;20078;-75
2023/02/15 07:50:09;;;;;;;29.52;16.08;;;;;;;2.73;62.57;96097.75;5051238;28;20425;-75
2023/02/15 07:52:35;;;;;;;32.80;16.20;;;;;;;3.68;59.96;96097.19;5062432;28;20482;-75
2023/02/15 07:55:00;;;;;;;26.17;15.15;;;;;;;4.08;59.13;96104.28;5069732;28;20449;-75
2023/02/15 07:57:25;;;;;;;28.83;16.38;;;;;;;3.84;58.29;96095.72;5052768;28;20035;-75
2023/02/15 07:59:51;;;;;;;29.05;16.27;;;;;;;3.74;58.86;96096.97;5065635;28;20036;-75
2023/02/15 08:02:17;;;;;;;30.85;17.10;;;;;;;4.39;57.60;96103.97;5031610;28;20051;-75
2023/02/15 08:04:42;;;;;;;33.40;19.08;;;;;;;4.22;58.17;96103.78;5068942;28;20032;-75
2023/02/15 08:07:07;;;;;;;35.63;18.55;;;;;;;4.16;58.52;96102.25;5067897;28;20410;-75
2023/02/15 08:09:33;;;;;;;30.17;17.10;;;;;;;4.01;57.73;96095.97;5052430;28;20032;-75
2023/02/15 08:11:58;;;;;;;28.33;16.60;;;;;;;3.93;58.54;96110.00;5068331;28;20040;-75
2023/02/15 08:14:24;;;;;;;29.98;15.82;;;;;;;3.81;57.89;96103.53;5070322;28;20509;-75
2023/02/15 08:16:50;;;;;;;25.38;15.25;;;;;;;3.65;57.98;96110.09;5068814;28;20410;-75
2023/02/15 08:19:19;;;;;;;24.33;14.23;;;;;;;3.72;57.94;96112.41;5066304;28;20037;-75
2023/02/15 08:21:56;;;;;;;28.92;15.82;;;;;;;3.73;57.73;96101.25;5071295;28;20092;-75
2023/02/15 08:24:23;;;;;;;25.63;14.27;;;;;;;3.75;58.06;96103.75;5036198;28;20062;-79
2023/02/15 08:26:49;;;;;;;26.63;15.43;;;;;;;3.79;57.91;96093.31;5046598;28;20033;-77
2023/02/15 08:29:15;;;;;;;28.02;17.17;;;;;;;3.67;58.46;96110.91;5053387;28;20029;-78
2023/02/15 08:31:41;;;;;;;30.08;17.42;;;;;;;3.55;58.63;96100.16;5035045;28;20063;-75
2023/02/15 08:34:11;;;;;;;35.08;19.15;;;;;;;3.67;58.26;96109.16;5050078;28;20450;-77
2023/02/15 08:36:37;;;;;;;30.88;17.90;;;;;;;3.88;57.52;96109.31;5048847;28;20041;-76
2023/02/15 08:39:04;;;;;;;62.80;37.13;;;;;;;3.98;57.01;96102.94;5101300;28;20043;-74
2023/02/15 08:41:34;;;;;;;95.90;53.72;;;;;;;3.98;57.04;96102.94;5061349;28;20514;-75
2023/02/15 08:44:01;;;;;;;37.57;23.43;;;;;;;3.85;56.67;96081.16;5036302;28;20062;-75
2023/02/15 08:46:30;;;;;;;32.25;18.02;;;;;;;3.73;57.52;96103.84;5050561;28;20503;-75
2023/02/15 08:48:56;;;;;;;27.60;15.98;;;;;;;4.01;57.89;96106.25;5072043;28;20591;-75
2023/02/15 08:51:26;;;;;;;27.73;15.65;;;;;;;3.94;57.15;96091.09;5049098;28;20116;-77
2023/02/15 08:53:53;;;;;;;52.75;25.95;;;;;;;4.10;57.16;96111.94;5036627;28;20024;-76
2023/02/15 08:56:21;;;;;;;52.20;26.15;;;;;;;4.13;57.33;96098.97;5060470;28;20511;-76
2023/02/15 08:58:46;;;;;;;49.30;26.05;;;;;;;4.27;56.99;96101.88;5060718;28;20085;-76
2023/02/15 09:01:22;;;;;;;40.88;21.60;;;;;;;4.14;57.06;96098.06;5065474;28;20044;-75
2023/02/15 09:03:49;;;;;;;28.40;16.63;;;;;;;4.29;56.78;96112.94;5067341;28;20028;-76
2023/02/15 09:06:18;;;;;;;29.30;17.27;;;;;;;4.20;57.37;96114.09;5098823;28;20097;-76
2023/02/15 09:08:44;;;;;;;35.28;19.98;;;;;;;4.26;57.00;96107.88;5069979;28;20110;-76
2023/02/15 09:11:13;;;;;;;28.00;17.73;;;;;;;4.06;57.17;96095.78;5064770;28;20036;-76
2023/02/15 09:13:38;;;;;;;32.08;17.98;;;;;;;4.07;57.10;96088.91;5098778;28;20106;-75
2023/02/15 09:16:06;;;;;;;33.38;16.00;;;;;;;4.05;57.55;96103.56;5080534;28;20033;-76
2023/02/15 09:18:35;;;;;;;26.27;16.95;;;;;;;4.11;57.26;96099.03;5048087;28;20028;-76
2023/02/15 09:21:13;;;;;;;29.08;16.75;;;;;;;4.15;56.82;96099.72;5048350;28;20032;-76
2023/02/15 09:23:39;;;;;;;29.60;16.92;;;;;;;3.97;57.68;96109.81;5048277;28;20403;-75
2023/02/15 09:26:06;;;;;;;53.30;25.02;;;;;;;4.13;57.07;96114.41;5046347;28;20032;-76
2023/02/15 09:28:32;;;;;;;41.63;22.20;;;;;;;4.05;56.40;96101.00;5102161;27;20495;-75
2023/02/15 09:31:08;;;;;;;27.67;15.57;;;;;;;4.19;56.79;96106.47;5051561;28;20024;-76
2023/02/15 09:33:34;;;;;;;28.48;16.30;;;;;;;4.29;56.19;96115.53;5050115;28;20410;-76
2023/02/15 09:36:02;;;;;;;28.27;16.08;;;;;;;4.45;56.01;96123.47;5049963;28;20060;-76
2023/02/15 09:38:28;;;;;;;28.83;16.08;;;;;;;4.33;55.69;96104.22;5065636;28;20047;-75
2023/02/15 09:41:18;;;;;;;22.85;14.80;;;;;;;4.57;55.97;96117.03;5034459;28;20025;-75
2023/02/15 09:44:08;;;;;;;26.70;14.82;;;;;;;4.54;55.76;96106.84;5083359;28;20036;-76
2023/02/15 09:46:55;;;;;;;27.95;16.38;;;;;;;4.85;54.48;96109.91;5063847;28;21068;-75
2023/02/15 09:49:39;;;;;;;26.10;14.77;;;;;;;4.73;54.39;96102.66;5069126;28;20029;-76
2023/02/15 09:52:23;;;;;;;27.02;17.35;;;;;;;4.78;54.54;96105.06;5064828;28;20586;-76
2023/02/15 09:55:10;;;;;;;30.85;17.33;;;;;;;4.81;55.09;96104.94;5069184;28;20098;-76
2023/02/15 09:58:12;;;;;;;29.15;17.58;;;;;;;4.89;54.90;96108.03;5067780;28;20485;-76
2023/02/15 10:01:00;;;;;;;27.77;15.85;;;;;;;5.19;54.45;96103.41;5061394;28;20089;-76
2023/02/15 10:03:50;;;;;;;26.77;16.67;;;;;;;5.44;53.70;96102.38;5067143;28;20042;-76
2023/02/15 10:06:19;;;;;;;31.15;17.40;;;;;;;5.66;53.32;96103.16;5068030;28;20033;-76
2023/02/15 10:09:08;;;;;;;29.45;17.05;;;;;;;5.88;52.49;96084.13;5067614;28;20146;-76
2023/02/15 10:11:41;;;;;;;26.70;16.02;;;;;;;6.02;52.43;96087.84;5048699;28;20506;-77
2023/02/15 10:14:18;;;;;;;28.85;17.38;;;;;;;6.09;52.54;96080.66;5051971;28;20024;-76
2023/02/15 10:16:47;;;;;;;29.48;16.48;;;;;;;6.16;51.36;96079.47;5067530;28;20060;-76
2023/02/15 10:19:31;;;;;;;30.33;18.20;;;;;;;5.94;52.21;96086.50;5067977;28;20517;-76
2023/02/15 10:22:05;;;;;;;29.30;17.55;;;;;;;5.73;52.49;96080.50;5068840;28;20080;-75
2023/02/15 10:24:58;;;;;;;30.88;17.92;;;;;;;5.66;52.76;96085.09;5068478;28;20413;-75
2023/02/15 10:27:23;;;;;;;30.52;17.67;;;;;;;5.66;52.50;96074.78;5065310;28;20383;-75
2023/02/15 10:30:02;;;;;;;30.60;20.25;;;;;;;5.95;52.44;96075.28;5050533;28;20031;-74
2023/02/15 10:32:29;;;;;;;30.45;18.90;;;;;;;6.12;51.28;96088.25;5064807;28;20115;-75
2023/02/15 10:35:04;;;;;;;30.88;18.35;;;;;;;6.08;51.80;96081.56;5050906;28;20456;-75
2023/02/15 10:38:03;;;;;;;33.13;18.92;;;;;;;6.22;51.31;96081.78;5084033;28;20487;-75
2023/02/15 10:40:59;;;;;;;28.25;18.00;;;;;;;6.02;51.33;96063.78;5048900;28;20045;-75
2023/02/15 10:43:45;;;;;;;33.28;18.60;;;;;;;6.12;51.83;96062.44;5053277;28;20498;-75
2023/02/15 10:46:32;;;;;;;32.00;18.83;;;;;;;6.23;51.77;96065.38;5066867;28;20537;-75
2023/02/15 10:49:20;;;;;;;31.20;17.55;;;;;;;6.20;50.63;96062.94;5067686;28;20099;-76
2023/02/15 10:52:06;;;;;;;27.33;16.00;;;;;;;6.31;50.64;96059.03;5047916;28;20045;-76
2023/02/15 10:54:38;;;;;;;30.48;17.40;;;;;;;6.21;51.07;96045.69;5068566;28;20029;-76
2023/02/15 10:57:33;;;;;;;39.75;19.88;;;;;;;6.46;50.92;96061.75;5049466;28;20040;-75
2023/02/15 11:00:39;;;;;;;26.77;16.65;;;;;;;6.36;50.41;96046.75;5065888;28;20044;-76
2023/02/15 11:03:19;;;;;;;26.10;16.45;;;;;;;6.38;49.53;96045.78;4993070;28;20046;-76
2023/02/15 11:05:58;;;;;;;25.92;15.65;;;;;;;6.28;49.46;96046.28;5057322;28;20037;-76
2023/02/15 11:08:24;;;;;;;24.95;15.02;;;;;;;6.27;49.79;96042.84;5066740;28;20035;-75
2023/02/15 11:10:55;;;;;;;24.63;15.90;;;;;;;6.14;50.59;96039.16;5050424;28;20024;-76
2023/02/15 11:13:22;;;;;;;25.40;15.68;;;;;;;6.17;49.81;96042.44;5037302;28;20114;-75
2023/02/15 11:15:59;;;;;;;28.92;16.80;;;;;;;6.14;50.39;96034.00;5064629;28;20119;-75
2023/02/15 11:18:26;;;;;;;27.73;17.17;;;;;;;6.18;50.19;96026.03;5068067;28;20086;-75
2023/02/15 11:21:01;;;;;;;27.08;17.13;;;;;;;6.24;50.07;96030.94;5066538;28;20032;-75
2023/02/15 11:23:27;;;;;;;28.05;17.30;;;;;;;6.24;50.24;96043.84;5065695;28;20074;-75
2023/02/15 11:26:03;;;;;;;26.80;17.45;;;;;;;6.25;50.65;96048.06;5064886;28;20021;-75
2023/02/15 11:28:42;;;;;;;29.13;17.98;;;;;;;6.26;51.11;96028.25;5038609;28;20032;-75
2023/02/15 11:31:13;;;;;;;27.17;17.40;;;;;;;6.38;50.71;96042.34;5066149;28;20036;-76
2023/02/15 11:33:41;;;;;;;29.92;18.25;;;;;;;6.42;49.79;96026.63;5049095;28;20104;-75
2023/02/15 11:36:17;;;;;;;26.48;16.25;;;;;;;6.55;49.78;96029.50;5044753;28;20037;-76
2023/02/15 11:38:43;;;;;;;28.00;17.63;;;;;;;6.44;51.43;96045.47;5047422;28;20499;-76
2023/02/15 11:41:14;;;;;;;31.42;18.33;;;;;;;6.51;50.69;96027.94;5049746;28;20039;-76
2023/02/15 11:43:44;;;;;;;28.23;17.75;;;;;;;6.47;50.31;96024.69;5047419;28;20032;-76
2023/02/15 11:46:11;;;;;;;30.83;18.25;;;;;;;6.45;49.73;96018.75;5081716;28;20468;-75
2023/02/15 11:48:37;;;;;;;28.55;17.23;;;;;;;6.29;50.21;96014.38;5032098;28;20037;-75
2023/02/15 11:51:02;;;;;;;28.23;18.27;;;;;;;6.51;49.84;96015.03;5049704;28;20414;-75
2023/02/15 11:53:31;;;;;;;28.38;17.75;;;;;;;6.43;50.12;96004.25;5085275;28;20111;-75
2023/02/15 11:55:56;;;;;;;28.50;18.13;;;;;;;6.19;50.79;96001.91;5081835;28;20028;-76
2023/02/15 11:58:28;;;;;;;28.33;17.27;;;;;;;6.45;50.26;96005.00;5052747;28;20082;-75
2023/02/15 12:00:57;;;;;;;31.98;18.67;;;;;;;6.49;50.12;95998.78;5065696;28;20075;-75
2023/02/15 12:03:28;;;;;;;30.50;18.23;;;;;;;6.39;50.17;95982.06;5066623;28;20525;-75
2023/02/15 12:06:02;;;;;;;28.23;16.88;;;;;;;6.52;49.62;96001.25;5081551;28;20040;-75
2023/02/15 12:08:40;;;;;;;26.52;17.15;;;;;;;6.27;50.01;95978.34;5048989;28;20099;-75